createdAt,value
2023-02-14T00:01:31.308Z,36.13
2023-02-14T00:04:04.959Z,36.33
2023-02-14T00:06:39.261Z,38.10
2023-02-14T00:10:06.100Z,35.93
2023-02-14T00:51:51.926Z,32.30
2023-02-14T00:54:18.909Z,37.60
2023-02-14T00:56:46.186Z,36.00
2023-02-14T00:59:13.535Z,33.57
2023-02-14T01:01:40.937Z,38.90
2023-02-14T01:04:09.359Z,35.83
2023-02-14T01:06:37.043Z,34.20
2023-02-14T01:09:04.779Z,35.90
2023-02-14T01:11:31.837Z,39.50
2023-02-14T01:13:59.566Z,37.60
2023-02-14T01:16:29.121Z,36.43
2023-02-14T01:18:58.419Z,38.17
2023-02-14T01:21:33.545Z,37.97
2023-02-14T01:24:05.066Z,36.97
2023-02-14T01:26:33.114Z,35.70
2023-02-14T01:29:00.285Z,37.83
2023-02-14T01:31:31.215Z,37.67
2023-02-14T01:33:59.376Z,40.47
2023-02-14T01:36:33.477Z,39.40
2023-02-14T01:39:05.896Z,35.70
2023-02-14T01:41:36.944Z,36.40
2023-02-14T01:44:28.369Z,38.50
2023-02-14T01:46:57.032Z,35.67
2023-02-14T01:49:32.818Z,35.73
2023-02-14T01:52:04.013Z,35.20
2023-02-14T01:54:35.465Z,33.17
2023-02-14T01:57:09.019Z,35.93
2023-02-14T01:59:42.772Z,31.43
2023-02-14T02:02:10.785Z,31.17
2023-02-14T02:04:46.680Z,29.70
2023-02-14T02:07:22.778Z,30.63
2023-02-14T02:10:00.549Z,31.53
2023-02-14T02:12:30.707Z,33.90
2023-02-14T02:15:00.019Z,33.77
2023-02-14T02:17:48.897Z,30.63
2023-02-14T02:20:22.093Z,33.33
2023-02-14T02:23:26.096Z,29.33
2023-02-14T02:26:36.149Z,30.83
2023-02-14T02:29:34.282Z,29.97
2023-02-14T02:32:45.705Z,29.87
2023-02-14T02:35:35.305Z,32.40
2023-02-14T02:38:19.848Z,31.50
2023-02-14T02:41:25.623Z,30.50
2023-02-14T02:44:25.994Z,31.53
2023-02-14T02:47:18.667Z,30.53
2023-02-14T02:50:35.074Z,30.53
2023-02-14T02:53:38.170Z,28.03
2023-02-14T02:56:38.156Z,30.20
2023-02-14T02:59:37.012Z,24.83
2023-02-14T03:02:03.894Z,28.50
2023-02-14T03:04:53.650Z,28.90
2023-02-14T03:07:36.486Z,28.43
2023-02-14T03:10:32.056Z,27.30
2023-02-14T03:13:18.916Z,27.00
2023-02-14T03:15:57.353Z,26.67
2023-02-14T03:18:52.461Z,28.53
2023-02-14T03:22:10.913Z,28.63
2023-02-14T03:25:05.850Z,26.80
2023-02-14T03:27:46.074Z,27.67
2023-02-14T03:30:49.137Z,30.17
2023-02-14T03:33:32.310Z,28.80
2023-02-14T03:36:15.237Z,30.37
2023-02-14T03:39:01.689Z,30.60
2023-02-14T03:41:37.529Z,30.27
2023-02-14T03:44:11.428Z,31.37
2023-02-14T03:46:46.581Z,33.13
2023-02-14T03:49:20.025Z,27.47
2023-02-14T03:51:52.767Z,29.07
2023-02-14T03:54:21.889Z,28.20
2023-02-14T03:57:07.869Z,29.53
2023-02-14T03:59:35.818Z,28.53
2023-02-14T04:02:23.521Z,27.73
2023-02-14T04:04:53.045Z,29.70
2023-02-14T04:07:22.870Z,29.33
2023-02-14T04:09:50.702Z,32.67
2023-02-14T04:12:32.363Z,30.60
2023-02-14T04:15:03.021Z,30.87
2023-02-14T04:17:48.665Z,30.67
2023-02-14T04:20:15.979Z,31.13
2023-02-14T04:22:43.186Z,28.37
2023-02-14T04:25:10.270Z,29.57
2023-02-14T04:27:37.487Z,27.70
2023-02-14T04:30:05.714Z,32.67
2023-02-14T04:32:32.799Z,29.20
2023-02-14T04:35:00.098Z,29.23
2023-02-14T04:37:27.297Z,29.20
2023-02-14T04:39:54.458Z,34.17
2023-02-14T04:42:21.511Z,29.17
2023-02-14T04:44:48.785Z,30.67
2023-02-14T04:47:15.848Z,31.63
2023-02-14T04:49:42.854Z,30.03
2023-02-14T04:52:09.955Z,29.40
2023-02-14T04:54:37.020Z,31.90
2023-02-14T04:57:04.268Z,32.00
2023-02-14T04:59:31.649Z,32.80
2023-02-14T05:01:58.990Z,31.80
2023-02-14T05:04:26.442Z,31.17
2023-02-14T05:06:53.696Z,34.00
2023-02-14T05:09:20.752Z,31.60
2023-02-14T05:11:47.884Z,27.07
2023-02-14T05:14:15.165Z,33.07
2023-02-14T05:16:42.355Z,30.00
2023-02-14T05:19:09.817Z,31.17
2023-02-14T05:21:38.307Z,30.87
2023-02-14T05:24:06.762Z,30.27
2023-02-14T05:26:33.988Z,31.30
2023-02-14T05:29:01.162Z,29.57
2023-02-14T05:31:28.420Z,30.20
2023-02-14T05:33:55.474Z,28.97
2023-02-14T05:36:22.540Z,31.70
2023-02-14T05:38:49.834Z,32.40
2023-02-14T05:41:16.946Z,28.33
2023-02-14T05:43:43.980Z,28.60
2023-02-14T05:46:11.115Z,31.77
2023-02-14T05:48:38.591Z,29.90
2023-02-14T05:51:08.479Z,29.10
2023-02-14T05:53:36.455Z,30.60
2023-02-14T05:56:04.227Z,27.50
2023-02-14T05:58:32.053Z,27.13
2023-02-14T06:01:00.849Z,28.00
2023-02-14T06:03:28.232Z,29.80
2023-02-14T06:05:55.719Z,32.30
2023-02-14T06:08:23.331Z,31.60
2023-02-14T06:10:50.553Z,33.37
2023-02-14T06:13:17.612Z,32.17
2023-02-14T06:15:44.812Z,33.93
2023-02-14T06:18:11.997Z,35.03
2023-02-14T06:20:39.045Z,34.10
2023-02-14T06:23:06.251Z,31.20
2023-02-14T06:25:33.912Z,36.33
2023-02-14T06:28:01.209Z,36.70
2023-02-14T06:30:29.680Z,35.97
2023-02-14T06:32:57.312Z,36.67
2023-02-14T06:35:24.976Z,37.97
2023-02-14T06:37:52.748Z,36.57
2023-02-14T06:40:20.374Z,31.93
2023-02-14T06:42:47.607Z,34.30
2023-02-14T06:45:14.628Z,34.40
2023-02-14T06:47:41.850Z,33.50
2023-02-14T06:50:11.770Z,34.53
2023-02-14T06:52:39.528Z,33.40
2023-02-14T06:55:07.213Z,32.00
2023-02-14T06:57:34.305Z,31.00
2023-02-14T07:00:01.411Z,32.90
2023-02-14T07:02:28.477Z,32.60
2023-02-14T07:04:55.834Z,32.63
2023-02-14T07:07:22.836Z,32.97
2023-02-14T07:09:49.915Z,33.37
2023-02-14T07:12:16.944Z,30.37
2023-02-14T07:14:44.114Z,32.40
2023-02-14T07:17:11.448Z,30.40
2023-02-14T07:19:38.579Z,31.13
2023-02-14T07:22:05.879Z,28.27
2023-02-14T07:24:32.992Z,28.60
2023-02-14T07:27:00.149Z,30.80
2023-02-14T07:29:27.389Z,32.23
2023-02-14T07:31:54.624Z,33.03
2023-02-14T07:34:21.939Z,31.63
2023-02-14T07:36:48.872Z,30.53
2023-02-14T07:39:19.090Z,28.13
2023-02-14T07:41:46.032Z,31.90
2023-02-14T07:44:13.069Z,32.77
2023-02-14T07:46:40.218Z,33.30
2023-02-14T07:49:07.276Z,30.90
2023-02-14T07:51:34.623Z,28.47
2023-02-14T07:54:02.037Z,31.83
2023-02-14T07:56:29.167Z,33.40
2023-02-14T07:58:56.233Z,32.27
2023-02-14T08:01:23.491Z,29.43
2023-02-14T08:03:51.580Z,31.43
2023-02-14T08:06:22.480Z,31.10
2023-02-14T08:08:49.532Z,27.57
2023-02-14T08:11:36.825Z,27.10
2023-02-14T08:14:05.374Z,28.93
2023-02-14T08:16:34.295Z,30.53
2023-02-14T08:19:02.477Z,31.07
2023-02-14T08:21:30.097Z,28.97
2023-02-14T08:23:57.615Z,28.73
2023-02-14T08:26:25.368Z,27.43
2023-02-14T08:28:52.813Z,28.83
2023-02-14T08:31:35.007Z,29.77
2023-02-14T08:34:04.744Z,31.63
2023-02-14T08:36:31.858Z,28.13
2023-02-14T08:38:58.917Z,28.60
2023-02-14T08:41:28.383Z,31.30
2023-02-14T08:43:55.806Z,29.47
2023-02-14T08:46:23.031Z,29.93
2023-02-14T08:48:50.407Z,29.50
2023-02-14T08:51:17.611Z,33.73
2023-02-14T08:53:46.689Z,31.53
2023-02-14T08:56:15.640Z,31.47
2023-02-14T08:58:42.873Z,30.53
2023-02-14T09:01:15.865Z,33.20
2023-02-14T09:03:44.681Z,32.70
2023-02-14T09:06:17.559Z,33.80
2023-02-14T09:08:45.391Z,30.60
2023-02-14T09:11:22.597Z,30.07
2023-02-14T09:13:53.282Z,30.73
2023-02-14T09:16:21.894Z,31.67
2023-02-14T09:18:49.807Z,30.03
2023-02-14T09:21:24.022Z,32.07
2023-02-14T09:23:51.534Z,32.47
2023-02-14T09:26:19.281Z,32.37
2023-02-14T09:28:47.407Z,32.20
2023-02-14T09:31:18.841Z,31.60
2023-02-14T09:34:06.699Z,28.33
2023-02-14T09:36:52.889Z,29.57
2023-02-14T09:39:19.998Z,26.63
2023-02-14T09:42:08.434Z,31.07
2023-02-14T09:45:10.435Z,30.77
2023-02-14T09:47:57.827Z,33.27
2023-02-14T09:50:42.738Z,29.97
2023-02-14T09:53:40.829Z,30.93
2023-02-14T09:56:20.333Z,29.97
2023-02-14T09:59:21.034Z,28.13
2023-02-14T10:02:15.572Z,29.70
2023-02-14T10:05:18.401Z,28.03
2023-02-14T10:07:57.021Z,26.80
2023-02-14T10:10:41.387Z,26.37
2023-02-14T10:13:26.742Z,27.30
2023-02-14T10:16:20.871Z,24.50
2023-02-14T10:19:01.622Z,28.33
2023-02-14T10:21:48.884Z,25.13
2023-02-14T10:24:35.496Z,26.10
2023-02-14T10:27:12.874Z,24.60
2023-02-14T10:29:41.603Z,29.27
2023-02-14T10:32:18.685Z,26.67
2023-02-14T10:34:51.393Z,24.27
2023-02-14T10:37:52.084Z,24.67
2023-02-14T10:41:18.957Z,27.33
2023-02-14T10:44:30.645Z,27.43
2023-02-14T10:47:02.185Z,24.80
2023-02-14T10:49:46.521Z,28.33
2023-02-14T10:52:53.821Z,26.53
2023-02-14T10:55:57.604Z,27.30
2023-02-14T10:58:29.307Z,25.63
2023-02-14T11:01:10.804Z,25.40
2023-02-14T11:03:44.039Z,27.37
2023-02-14T11:06:11.778Z,27.20
2023-02-14T11:08:41.496Z,28.83
2023-02-14T11:11:28.987Z,27.27
2023-02-14T11:13:56.350Z,29.87
2023-02-14T11:16:32.244Z,29.50
2023-02-14T11:19:25.946Z,29.13
2023-02-14T11:21:56.740Z,26.73
2023-02-14T11:24:41.498Z,27.23
2023-02-14T11:27:19.712Z,31.60
2023-02-14T11:29:52.480Z,27.73
2023-02-14T11:32:29.545Z,30.10
2023-02-14T11:35:34.507Z,29.67
2023-02-14T11:38:06.025Z,29.20
2023-02-14T11:40:40.581Z,30.47
2023-02-14T11:43:14.284Z,25.30
2023-02-14T11:45:47.990Z,27.27
2023-02-14T11:48:40.791Z,27.27
2023-02-14T11:51:15.940Z,24.63
2023-02-14T11:53:54.652Z,26.60
2023-02-14T11:56:23.638Z,26.73
2023-02-14T11:59:03.462Z,25.38
2023-02-14T12:01:35.712Z,23.73
2023-02-14T12:04:16.691Z,24.73
2023-02-14T12:06:45.758Z,26.50
2023-02-14T12:09:13.797Z,29.43
2023-02-14T12:11:41.139Z,26.77
2023-02-14T12:14:22.331Z,28.58
2023-02-14T12:17:26.509Z,25.97
2023-02-14T12:19:59.909Z,26.73
2023-02-14T12:22:35.224Z,25.17
2023-02-14T12:25:28.531Z,26.67
2023-02-14T12:28:13.295Z,28.50
2023-02-14T12:30:41.555Z,28.90
2023-02-14T12:33:24.799Z,27.30
2023-02-14T12:36:32.052Z,29.17
2023-02-14T12:39:33.863Z,24.90
2023-02-14T12:42:34.466Z,26.58
2023-02-14T12:45:16.418Z,27.20
2023-02-14T12:48:16.744Z,31.50
2023-02-14T12:51:08.024Z,29.27
2023-02-14T12:53:57.040Z,26.80
2023-02-14T12:56:47.645Z,25.10
2023-02-14T12:59:58.979Z,27.88
2023-02-14T13:02:43.183Z,27.35
2023-02-14T13:05:42.232Z,27.02
2023-02-14T13:08:21.295Z,28.67
2023-02-14T13:11:22.434Z,27.20
2023-02-14T13:14:12.961Z,28.25
2023-02-14T13:16:57.497Z,26.25
2023-02-14T13:20:03.169Z,27.48
2023-02-14T13:22:33.964Z,28.73
2023-02-14T13:25:13.451Z,27.35
2023-02-14T13:27:41.530Z,26.38
2023-02-14T13:30:32.136Z,25.13
2023-02-14T13:33:07.851Z,24.60
2023-02-14T13:35:35.734Z,25.25
2023-02-14T13:38:08.703Z,28.05
2023-02-14T13:40:36.500Z,24.75
2023-02-14T13:43:04.358Z,29.05
2023-02-14T13:45:37.036Z,25.90
2023-02-14T13:48:25.272Z,24.52
2023-02-14T13:50:58.202Z,29.17
2023-02-14T13:53:41.962Z,25.67
2023-02-14T13:56:17.631Z,29.27
2023-02-14T13:58:53.948Z,23.55
2023-02-14T14:01:51.397Z,28.95
2023-02-14T14:04:33.409Z,26.80
2023-02-14T14:07:03.437Z,26.52
2023-02-14T14:09:42.801Z,29.02
2023-02-14T14:12:28.146Z,25.15
2023-02-14T14:15:08.109Z,24.15
2023-02-14T14:17:42.939Z,27.00
2023-02-14T14:20:23.074Z,25.23
2023-02-14T14:22:57.466Z,27.80
2023-02-14T14:25:37.591Z,25.13
2023-02-14T14:28:13.203Z,29.55
2023-02-14T14:30:44.896Z,26.70
2023-02-14T14:33:30.123Z,26.63
2023-02-14T14:36:10.232Z,27.50
2023-02-14T14:38:49.723Z,29.17
2023-02-14T14:41:17.969Z,27.30
2023-02-14T14:43:45.259Z,26.52
2023-02-14T14:46:14.347Z,27.90
2023-02-14T14:48:51.502Z,28.88
2023-02-14T14:51:32.222Z,25.95
2023-02-14T14:54:07.592Z,26.60
2023-02-14T14:56:49.936Z,25.88
2023-02-14T14:59:39.387Z,27.45
2023-02-14T15:02:27.562Z,29.60
2023-02-14T15:04:55.070Z,28.15
2023-02-14T15:07:36.421Z,29.90
2023-02-14T15:10:20.552Z,31.77
2023-02-14T15:13:06.538Z,25.17
2023-02-14T15:15:33.934Z,27.52
2023-02-14T15:18:11.869Z,29.42
2023-02-14T15:20:41.520Z,28.10
2023-02-14T15:23:22.478Z,31.80
2023-02-14T15:25:51.863Z,27.45
2023-02-14T15:28:34.830Z,26.10
2023-02-14T15:31:06.530Z,30.13
2023-02-14T15:33:35.057Z,29.85
2023-02-14T15:36:16.144Z,29.60
2023-02-14T15:38:43.503Z,28.92
2023-02-14T15:41:13.054Z,29.80
2023-02-14T15:43:41.260Z,31.30
2023-02-14T15:46:33.231Z,29.85
2023-02-14T15:49:05.916Z,28.60
2023-02-14T15:51:36.542Z,31.53
2023-02-14T15:54:37.053Z,31.47
2023-02-14T15:57:16.231Z,27.10
2023-02-14T15:59:43.713Z,32.78
2023-02-14T16:02:42.105Z,27.10
2023-02-14T16:05:19.392Z,26.77
2023-02-14T16:08:04.351Z,27.93
2023-02-14T16:10:42.955Z,30.80
2023-02-14T16:13:20.663Z,30.63
2023-02-14T16:16:11.351Z,31.47
2023-02-14T16:18:50.788Z,33.37
2023-02-14T16:21:25.838Z,29.93
2023-02-14T16:24:10.636Z,32.30
2023-02-14T16:26:38.425Z,29.80
2023-02-14T16:29:10.696Z,33.67
2023-02-14T16:32:14.130Z,33.43
2023-02-14T16:34:36.397Z,30.57
2023-02-14T16:37:17.168Z,30.87
2023-02-14T16:39:44.867Z,32.37
2023-02-14T16:42:17.850Z,29.90
2023-02-14T16:44:47.138Z,35.30
2023-02-14T16:47:16.595Z,27.93
2023-02-14T16:49:44.109Z,29.33
2023-02-14T16:52:21.824Z,35.63
2023-02-14T16:54:50.588Z,36.03
2023-02-14T16:57:32.188Z,34.87
2023-02-14T16:59:59.405Z,32.97
2023-02-14T17:02:29.972Z,35.27
2023-02-14T17:04:57.117Z,34.40
2023-02-14T17:07:24.897Z,33.20
2023-02-14T17:09:57.751Z,34.43
2023-02-14T17:12:30.571Z,30.73
2023-02-14T17:15:05.983Z,36.50
2023-02-14T17:17:36.230Z,33.10
2023-02-14T17:20:08.256Z,30.63
2023-02-14T17:22:37.075Z,37.30
2023-02-14T17:25:06.305Z,34.23
2023-02-14T17:27:33.489Z,30.87
2023-02-14T17:30:01.208Z,36.47
2023-02-14T17:32:28.425Z,31.33
2023-02-14T17:34:56.522Z,30.63
2023-02-14T17:37:24.157Z,36.20
2023-02-14T17:39:53.187Z,32.20
2023-02-14T17:42:20.299Z,33.43
2023-02-14T17:44:47.450Z,37.47
2023-02-14T17:47:16.172Z,33.57
2023-02-14T17:49:44.267Z,29.93
2023-02-14T17:52:11.740Z,33.60
2023-02-14T17:54:39.172Z,36.27
2023-02-14T17:57:06.509Z,37.07
2023-02-14T17:59:34.090Z,38.00
2023-02-14T18:02:01.344Z,43.17
2023-02-14T18:04:30.363Z,39.00
2023-02-14T18:06:57.686Z,38.27
2023-02-14T18:09:25.801Z,36.13
2023-02-14T18:11:52.785Z,37.33
2023-02-14T18:14:20.056Z,40.43
2023-02-14T18:16:47.587Z,33.17
2023-02-14T18:19:18.255Z,33.60
2023-02-14T18:21:46.249Z,39.43
2023-02-14T18:26:42.693Z,45.47
2023-02-14T18:29:10.806Z,37.27
2023-02-14T18:31:41.083Z,50.63
2023-02-14T18:34:09.004Z,47.83
2023-02-14T18:36:39.610Z,47.60
2023-02-14T18:39:08.563Z,50.87
2023-02-14T18:41:35.923Z,51.00
2023-02-14T18:44:03.131Z,51.30
2023-02-14T18:46:35.289Z,47.63
2023-02-14T18:49:06.027Z,49.30
2023-02-14T18:51:39.193Z,49.87
2023-02-14T18:54:07.061Z,44.07
2023-02-14T18:56:38.006Z,51.27
2023-02-14T18:59:11.633Z,47.90
2023-02-14T19:01:43.448Z,48.03
2023-02-14T19:04:12.448Z,46.87
2023-02-14T19:06:42.039Z,45.53
2023-02-14T19:09:14.184Z,46.07
2023-02-14T19:11:41.667Z,50.10
2023-02-14T19:14:13.463Z,48.77
2023-02-14T19:16:52.015Z,47.70
2023-02-14T19:19:19.963Z,51.50
2023-02-14T19:21:48.470Z,47.97
2023-02-14T19:24:17.436Z,50.17
2023-02-14T19:26:45.929Z,49.90
2023-02-14T19:29:16.875Z,48.67
2023-02-14T19:31:48.647Z,46.50
2023-02-14T19:34:28.295Z,43.23
2023-02-14T19:36:59.145Z,48.57
2023-02-14T19:39:29.739Z,46.00
2023-02-14T19:41:57.397Z,47.53
2023-02-14T19:44:25.906Z,46.97
2023-02-14T19:46:54.470Z,48.03
2023-02-14T19:49:22.112Z,49.53
2023-02-14T19:51:53.499Z,48.63
2023-02-14T19:54:22.879Z,46.37
2023-02-14T19:56:50.084Z,51.57
2023-02-14T19:59:22.493Z,50.93
2023-02-14T20:01:53.592Z,44.67
2023-02-14T20:04:27.509Z,48.77
2023-02-14T20:06:55.752Z,50.90
2023-02-14T20:09:23.869Z,51.27
2023-02-14T20:11:58.554Z,51.47
2023-02-14T20:14:35.969Z,54.43
2023-02-14T20:17:08.146Z,56.13
2023-02-14T20:19:36.028Z,55.40
2023-02-14T20:22:03.935Z,56.53
2023-02-14T20:24:32.749Z,54.97
2023-02-14T20:27:00.596Z,50.37
2023-02-14T20:29:27.978Z,55.37
2023-02-14T20:32:00.067Z,51.37
2023-02-14T20:34:28.286Z,49.70
2023-02-14T20:36:56.191Z,56.23
2023-02-14T20:39:32.339Z,52.17
2023-02-14T20:42:01.014Z,48.67
2023-02-14T20:44:28.476Z,52.10
2023-02-14T20:46:56.969Z,42.93
2023-02-14T20:49:27.599Z,50.70
2023-02-14T20:51:56.153Z,52.97
2023-02-14T20:54:26.588Z,55.00
2023-02-14T20:56:54.617Z,50.40
2023-02-14T20:59:27.056Z,54.30
2023-02-14T21:01:58.720Z,56.13
2023-02-14T21:04:26.329Z,61.53
2023-02-14T21:06:53.683Z,63.90
2023-02-14T21:09:20.859Z,53.07
2023-02-14T21:11:48.429Z,58.00
2023-02-14T21:14:17.397Z,56.40
2023-02-14T21:16:44.760Z,56.67
2023-02-14T21:19:11.853Z,62.00
2023-02-14T21:21:39.062Z,54.70
2023-02-14T21:24:12.440Z,60.57
2023-02-14T21:26:39.919Z,60.33
2023-02-14T21:29:08.440Z,58.40
2023-02-14T21:31:36.871Z,55.10
2023-02-14T21:34:04.814Z,56.03
2023-02-14T21:36:36.024Z,49.00
2023-02-14T21:39:04.943Z,53.50
2023-02-14T21:41:32.995Z,52.90
2023-02-14T21:44:01.925Z,54.47
2023-02-14T21:46:32.811Z,52.00
2023-02-14T21:49:21.576Z,55.20
2023-02-14T21:51:48.873Z,52.73
2023-02-14T21:54:16.355Z,52.13
2023-02-14T21:56:44.892Z,55.07
2023-02-14T21:59:12.810Z,52.37
2023-02-14T22:01:42.260Z,57.37
2023-02-14T22:04:12.356Z,55.33
2023-02-14T22:06:42.240Z,61.10
2023-02-14T22:09:14.254Z,54.80
2023-02-14T22:11:45.551Z,59.23
2023-02-14T22:14:14.718Z,56.13
2023-02-14T22:16:42.299Z,59.63
2023-02-14T22:19:15.490Z,61.60
2023-02-14T22:21:43.919Z,56.23
2023-02-14T22:24:11.091Z,57.90
2023-02-14T22:26:40.644Z,56.10
2023-02-14T22:29:11.723Z,62.57
2023-02-14T22:31:42.538Z,53.93
2023-02-14T22:34:22.472Z,55.53
2023-02-14T22:37:02.572Z,59.23
2023-02-14T22:39:35.613Z,55.80
2023-02-14T22:42:06.823Z,59.60
2023-02-14T22:44:34.135Z,60.83
2023-02-14T22:47:01.610Z,56.20
2023-02-14T22:49:28.955Z,56.27
2023-02-14T22:51:56.280Z,53.17
2023-02-14T22:54:32.448Z,55.07
2023-02-14T22:57:00.335Z,55.73
2023-02-14T22:59:28.606Z,51.43
2023-02-14T23:02:04.542Z,54.30
2023-02-14T23:40:11.128Z,48.40
2023-02-14T23:42:38.496Z,49.13
2023-02-14T23:45:24.883Z,48.10
2023-02-14T23:47:51.987Z,53.77
2023-02-14T23:50:19.250Z,51.27
2023-02-14T23:52:46.825Z,52.33
2023-02-14T23:55:14.188Z,49.70
2023-02-14T23:57:41.725Z,51.37
